TimeCST,TemperatureF,Dew PointF,Humidity,Sea Level PressureIn,VisibilityMPH,Wind Direction,Wind SpeedMPH,Gust SpeedMPH,PrecipitationIn,Events,Conditions,WindDirDegrees,DateUTC
12:52 AM,35.1,28.9,78,30.31,10.0,ENE,4.6,-,N/A,,Clear,60,2011-11-21 06:52:00
1:52 AM,33.1,28.9,85,30.28,10.0,NE,10.4,-,N/A,,Clear,50,2011-11-21 07:52:00
2:52 AM,32.0,28.0,85,30.30,10.0,NE,4.6,-,N/A,,Clear,50,2011-11-21 08:52:00
3:52 AM,28.9,26.1,89,30.27,10.0,ENE,6.9,-,N/A,,Clear,70,2011-11-21 09:52:00
4:52 AM,30.0,26.1,85,30.30,10.0,ENE,4.6,-,N/A,,Clear,70,2011-11-21 10:52:00
5:52 AM,27.0,25.0,92,30.30,9.0,East,4.6,-,N/A,,Clear,80,2011-11-21 11:52:00
6:52 AM,30.0,26.1,85,30.30,10.0,ENE,4.6,-,N/A,,Clear,60,2011-11-21 12:52:00
7:52 AM,32.0,28.0,85,30.31,10.0,ENE,8.1,-,N/A,,Clear,70,2011-11-21 13:52:00
8:52 AM,36.0,30.0,79,30.32,10.0,ENE,10.4,-,N/A,,Clear,70,2011-11-21 14:52:00
9:52 AM,39.9,32.0,73,30.30,10.0,East,9.2,-,N/A,,Clear,80,2011-11-21 15:52:00
10:52 AM,44.1,34.0,68,30.28,10.0,East,10.4,-,N/A,,Clear,80,2011-11-21 16:52:00
11:52 AM,45.0,35.1,68,30.25,10.0,East,6.9,-,N/A,,Clear,80,2011-11-21 17:52:00
12:52 PM,46.9,36.0,66,30.22,10.0,East,5.8,-,N/A,,Clear,90,2011-11-21 18:52:00
1:52 PM,48.9,36.0,61,30.20,10.0,ENE,11.5,-,N/A,,Clear,60,2011-11-21 19:52:00
2:52 PM,48.9,36.0,61,30.19,10.0,East,9.2,-,N/A,,Clear,80,2011-11-21 20:52:00
3:52 PM,48.0,37.0,66,30.18,10.0,East,8.1,-,N/A,,Clear,90,2011-11-21 21:52:00
4:52 PM,42.1,35.1,76,30.19,10.0,East,6.9,-,N/A,,Clear,90,2011-11-21 22:52:00
5:52 PM,44.1,36.0,73,30.19,10.0,ENE,8.1,-,N/A,,Clear,70,2011-11-21 23:52:00
6:52 PM,42.1,35.1,76,30.19,10.0,East,9.2,-,N/A,,Clear,80,2011-11-22 00:52:00
7:52 PM,42.8,35.6,76,30.15,10.0,ENE,11.5,-,N/A,,Overcast,70,2011-11-22 01:52:00
8:52 PM,42.1,35.1,76,30.17,10.0,East,17.3,-,N/A,,Overcast,90,2011-11-22 02:52:00
9:52 PM,42.1,35.1,76,30.17,8.0,ENE,10.4,-,N/A,,Overcast,70,2011-11-22 03:52:00
10:29 PM,42.8,35.6,76,30.17,7.0,East,11.5,-,N/A,,Overcast,90,2011-11-22 04:29:00
10:52 PM,42.1,36.0,79,30.19,7.0,East,9.2,-,N/A,,Overcast,100,2011-11-22 04:52:00
11:52 PM,41.0,36.0,82,30.17,6.0,ENE,10.4,-,N/A,,Haze,70,2011-11-22 05:52:00